Ramenskoye Airport
UUBW : now visible

Airfield :
LOGIN :

Register | Disclaimer

   EN    FR    IT 

 










Legend :    VFR   Marginal VFR   IFR   Intensive IFR   Very Intensive IFR
Visi :
Ceiling :
>= 8 km
>= 3000ft
5 to 8 km
1000 to 3000 ft
1500m to 5 km
500 to 1000 ft
800 to 1500m
200 to 500 ft
< 800m
< 200 ft
Symbols :   Thunderstorms  Fog  Heavy snow  Heavy precipitations  Wind > 20 kt
SIGMETs :     Misc.  Thunderstorms  Icing  Turbulence  Mountain Waves  Volcanic Ashes







- Airport Elevation : 377 ft


UUBW - Ramenskoye

CURRENT METAR :
  • 252200Z 00000MPS CAVOK 15/08 Q1026 R30/010060 NOSIG

EXPIRED METARs :
  • 252130Z 00000MPS CAVOK 16/08 Q1026 R30/010060 NOSIG
  • 252100Z 00000MPS CAVOK 16/08 Q1026 R30/010060 NOSIG
  • 252030Z 00000MPS CAVOK 17/07 Q1026 R30/010060 NOSIG
  • 252000Z 35001MPS CAVOK 18/07 Q1026 R30/010060 NOSIG
  • 251930Z 36002MPS CAVOK 19/07 Q1026 R30/010060 NOSIG

TAF TAF UUBW
Valid from the 25 at 21:00 until the 26 at 21:00 UTC


251958Z 2521/2621 27003MPS 9999 SCT040 TX24/2612Z TN14/2601Z
TEMPO 2611/2621 35005MPS 3100 -SHRA SCT020CB
PROB40
TEMPO 2611/2618 -TSRA BKN015CB
No reported NOTAMs for that airfield.



MET'MAP, your aeronautical weather chart ! - Copyright ORBIFLY December 2007 - Disclaimer

ORBIFLY MET'MAP TEAM :

Programming & Development : Alexandra Zaïnal
Concept & Development : Baudouin d'Aumeries
Co-Development & Prog : Marc-Olivier Méhu
Technical & hardware support : Manuel Goepfert

Contact : metmap@orbifly.com




SOURCES & CREDITS :

   NOAA